Terminal Aerodrome Forecast
Issued by NWS

Home | Current Version | Previous Version | Text Only | Print | Product List | Glossary On
Versions: 1 2 3 4 5 6 7 8 9 10 11 12 13 14 15 16
298
FTUS45 KTFX 072333
TAFHVR
TAF
KHVR 072333Z 0800/0824 32008KT P6SM SCT180
     FM080300 26005KT P6SM BKN150
     FM081700 23014G28KT P6SM BKN090=

USA.gov is the U.S. government's official web portal to all federal, state and local government web resources and services.